Time;durP1;ratioP1;P1;durP2;ratioP2;P2;SDS_P1;SDS_P2;PMS_P1;PMS_P2;Temp;Humidity;BMP_temperature;BMP_pressure;BME280_temperature;BME280_humidity;BME280_pressure;Samples;Min_cycle;Max_cycle;Signal;HPM_P1;HPM_P2
2023/03/20 00:01:17;;;;;;;9.35;7.15;;;8.50;99.90;;;;;;4989054;28;20053;-80
2023/03/20 00:03:44;;;;;;;9.17;7.00;;;8.50;99.90;;;;;;5001312;28;20039;-79
2023/03/20 00:06:22;;;;;;;10.43;7.53;;;8.60;99.90;;;;;;4985667;28;20407;-78
2023/03/20 00:08:51;;;;;;;9.93;7.03;;;8.60;99.90;;;;;;5004050;28;20042;-79
2023/03/20 00:11:31;;;;;;;10.43;7.10;;;8.70;99.90;;;;;;5006410;28;20386;-79
2023/03/20 00:14:04;;;;;;;9.85;7.55;;;8.60;99.90;;;;;;5000425;28;20034;-79
2023/03/20 00:16:34;;;;;;;9.60;7.07;;;8.70;99.90;;;;;;5001168;28;20042;-79
2023/03/20 00:19:02;;;;;;;10.95;7.60;;;8.70;99.90;;;;;;4982835;28;20038;-79
2023/03/20 00:21:28;;;;;;;11.82;6.95;;;8.70;99.90;;;;;;4999640;28;20038;-79
2023/03/20 00:23:55;;;;;;;7.32;6.00;;;8.80;99.90;;;;;;4999291;28;20034;-79
2023/03/20 00:26:27;;;;;;;11.38;7.75;;;8.70;99.90;;;;;;5004571;28;20034;-79
2023/03/20 00:28:53;;;;;;;8.15;5.88;;;8.70;99.90;;;;;;5000624;28;20053;-78
2023/03/20 00:31:28;;;;;;;9.68;7.20;;;8.70;99.90;;;;;;4983711;28;20038;-81
2023/03/20 00:34:08;;;;;;;8.00;6.25;;;8.70;99.90;;;;;;5005147;28;20041;-79
2023/03/20 00:36:35;;;;;;;10.38;6.60;;;8.70;99.90;;;;;;4992444;28;20039;-79
2023/03/20 00:39:01;;;;;;;9.05;5.97;;;8.70;99.90;;;;;;5004107;28;20036;-79
2023/03/20 00:41:38;;;;;;;6.97;5.65;;;8.70;99.20;;;;;;4989564;28;20056;-79
2023/03/20 00:44:15;;;;;;;5.82;4.75;;;8.70;97.30;;;;;;5004859;28;20030;-80
2023/03/20 00:46:42;;;;;;;7.03;5.40;;;8.70;97.50;;;;;;5011382;28;20050;-79
2023/03/20 00:49:10;;;;;;;6.95;5.45;;;8.70;98.10;;;;;;5009898;28;20046;-80
2023/03/20 00:51:38;;;;;;;8.30;5.53;;;8.70;97.90;;;;;;4986133;28;20046;-79
2023/03/20 00:54:12;;;;;;;8.30;5.40;;;8.70;97.10;;;;;;5004156;28;20037;-80
2023/03/20 00:56:43;;;;;;;8.15;5.40;;;8.70;95.10;;;;;;5006765;28;20390;-78
2023/03/20 00:59:17;;;;;;;11.70;5.22;;;8.70;93.50;;;;;;4982072;28;20041;-78
2023/03/20 01:01:44;;;;;;;6.50;5.03;;;8.70;93.20;;;;;;5004169;28;20061;-78
2023/03/20 01:04:17;;;;;;;8.50;5.10;;;8.70;93.20;;;;;;5004249;28;20042;-78
2023/03/20 01:06:43;;;;;;;8.23;5.00;;;8.70;94.30;;;;;;5008908;28;20038;-79
2023/03/20 01:09:10;;;;;;;5.00;3.83;;;8.70;93.40;;;;;;4985685;28;20053;-78
2023/03/20 01:11:37;;;;;;;7.07;4.60;;;8.70;91.60;;;;;;5012727;28;20056;-78
2023/03/20 01:14:05;;;;;;;5.07;3.83;;;8.70;91.40;;;;;;5004541;28;20026;-79
2023/03/20 01:16:31;;;;;;;5.68;4.03;;;8.70;90.60;;;;;;5002728;28;20030;-79
2023/03/20 01:18:57;;;;;;;6.03;3.85;;;8.80;89.70;;;;;;4986323;28;20045;-78
2023/03/20 01:21:26;;;;;;;5.03;4.20;;;8.80;85.40;;;;;;5001673;28;20122;-78
2023/03/20 01:23:52;;;;;;;4.80;3.22;;;8.80;81.00;;;;;;5003099;28;20049;-79
2023/03/20 01:26:29;;;;;;;5.35;3.70;;;8.80;77.60;;;;;;5002952;28;20033;-80
2023/03/20 01:28:55;;;;;;;6.45;2.95;;;8.80;72.70;;;;;;5002312;28;20065;-78
2023/03/20 01:31:22;;;;;;;5.35;3.25;;;8.70;72.30;;;;;;5004847;28;20051;-78
2023/03/20 01:33:48;;;;;;;4.50;3.58;;;8.70;72.00;;;;;;5004100;28;20041;-79
2023/03/20 01:36:19;;;;;;;4.22;2.53;;;8.70;73.00;;;;;;4984878;28;20042;-78
2023/03/20 01:38:57;;;;;;;3.47;2.47;;;8.70;77.20;;;;;;4985949;28;20042;-78
2023/03/20 01:41:26;;;;;;;4.60;2.88;;;8.70;77.60;;;;;;4981624;28;20053;-78
2023/03/20 01:43:52;;;;;;;5.95;3.35;;;8.70;73.50;;;;;;4984903;28;20043;-78
2023/03/20 01:46:28;;;;;;;3.97;2.90;;;8.70;73.00;;;;;;4993765;28;20031;-78
2023/03/20 01:49:06;;;;;;;4.03;2.35;;;8.70;74.00;;;;;;4998416;28;20483;-78
2023/03/20 01:51:36;;;;;;;4.80;3.25;;;8.70;74.90;;;;;;4988859;28;20046;-79
2023/03/20 01:54:14;;;;;;;4.85;3.20;;;8.80;75.10;;;;;;4982535;28;20046;-80
2023/03/20 01:56:57;;;;;;;3.95;2.95;;;8.70;70.90;;;;;;4969768;28;20042;-78
2023/03/20 01:59:28;;;;;;;5.65;3.20;;;8.70;71.90;;;;;;4989156;28;20490;-78
2023/03/20 02:01:56;;;;;;;6.28;3.80;;;8.70;72.30;;;;;;5000839;28;20467;-78
2023/03/20 02:04:29;;;;;;;6.28;4.53;;;8.70;73.60;;;;;;4983925;28;20050;-79
2023/03/20 02:07:05;;;;;;;5.50;3.35;;;8.80;74.60;;;;;;5001239;28;20042;-78
2023/03/20 02:09:51;;;;;;;6.72;4.13;;;8.70;72.50;;;;;;4987702;28;20054;-79
2023/03/20 02:12:30;;;;;;;4.60;3.50;;;8.70;74.40;;;;;;4985745;28;20042;-78
2023/03/20 02:14:57;;;;;;;4.95;3.55;;;8.70;77.10;;;;;;4988204;28;20050;-78
2023/03/20 02:17:44;;;;;;;4.75;4.03;;;8.70;78.60;;;;;;4985691;28;20038;-78
2023/03/20 02:20:26;;;;;;;5.15;3.60;;;8.70;77.00;;;;;;4983541;28;20046;-79
2023/03/20 02:23:03;;;;;;;6.53;3.67;;;8.70;73.70;;;;;;4996147;28;20049;-78
2023/03/20 02:25:59;;;;;;;4.63;3.22;;;8.70;74.60;;;;;;4998515;28;20037;-78
2023/03/20 02:28:41;;;;;;;4.65;2.90;;;8.60;77.00;;;;;;4989375;28;20046;-78
2023/03/20 02:32:06;;;;;;;5.00;3.22;;;8.70;79.00;;;;;;4993075;28;20066;-81
2023/03/20 02:35:04;;;;;;;3.80;2.58;;;8.60;83.00;;;;;;4951833;29;20048;-78
2023/03/20 02:37:39;;;;;;;4.18;2.88;;;8.60;83.10;;;;;;4921729;29;20044;-78
2023/03/20 02:40:18;;;;;;;6.35;3.20;;;8.60;85.50;;;;;;4985244;28;20047;-78
2023/03/20 02:42:55;;;;;;;5.57;3.60;;;8.60;90.00;;;;;;5000731;28;20045;-78
2023/03/20 02:45:28;;;;;;;4.88;3.03;;;8.60;90.60;;;;;;4995956;28;20069;-78
2023/03/20 02:48:13;;;;;;;3.85;2.22;;;8.60;90.20;;;;;;5011420;28;20053;-81
2023/03/20 02:50:58;;;;;;;4.07;2.53;;;8.60;86.70;;;;;;5001221;28;20057;-79
2023/03/20 02:53:45;;;;;;;3.60;2.22;;;8.60;86.50;;;;;;4998378;28;20375;-78
2023/03/20 02:56:29;;;;;;;3.70;2.10;;;8.60;85.60;;;;;;5001905;28;20034;-80
2023/03/20 02:59:09;;;;;;;4.82;2.80;;;8.60;88.00;;;;;;4997155;28;20035;-78
2023/03/20 03:01:41;;;;;;;3.85;2.25;;;8.60;87.20;;;;;;5002459;28;20380;-79
2023/03/20 03:04:17;;;;;;;4.10;2.50;;;8.60;86.40;;;;;;5001580;28;20411;-81
2023/03/20 03:06:47;;;;;;;4.03;2.28;;;8.60;88.10;;;;;;5005680;28;20038;-79
2023/03/20 03:09:23;;;;;;;4.85;2.60;;;8.70;86.30;;;;;;5015705;28;20041;-79
2023/03/20 03:11:55;;;;;;;3.17;2.15;;;8.60;83.80;;;;;;5007063;28;20045;-78
2023/03/20 03:14:37;;;;;;;3.28;2.25;;;8.60;83.20;;;;;;5004843;28;20033;-78
2023/03/20 03:17:11;;;;;;;5.63;2.55;;;8.60;83.90;;;;;;5002988;28;20510;-81
2023/03/20 03:19:43;;;;;;;4.65;3.10;;;8.70;87.00;;;;;;5006594;28;20046;-78
2023/03/20 03:22:11;;;;;;;4.80;2.70;;;8.70;83.90;;;;;;5006056;28;20395;-80
2023/03/20 03:24:42;;;;;;;5.65;2.95;;;8.60;84.00;;;;;;5005795;28;20041;-78
2023/03/20 03:27:16;;;;;;;6.35;3.20;;;8.70;85.80;;;;;;5012537;28;20038;-81
2023/03/20 03:29:44;;;;;;;4.70;2.95;;;8.60;84.10;;;;;;5001424;28;20073;-78
2023/03/20 03:32:28;;;;;;;4.88;3.20;;;8.60;83.90;;;;;;5004792;28;20464;-80
2023/03/20 03:34:55;;;;;;;6.60;3.90;;;8.70;84.20;;;;;;5009371;28;20061;-79
2023/03/20 03:37:34;;;;;;;7.50;3.67;;;8.70;82.10;;;;;;5003308;28;20041;-78
2023/03/20 03:40:21;;;;;;;5.80;3.97;;;8.70;77.20;;;;;;5000639;28;20399;-79
2023/03/20 03:42:50;;;;;;;6.30;3.28;;;8.70;72.00;;;;;;5001815;28;20046;-77
2023/03/20 03:45:24;;;;;;;5.60;3.33;;;8.80;64.40;;;;;;5003082;28;20053;-77
2023/03/20 03:47:54;;;;;;;5.68;3.03;;;8.90;57.80;;;;;;5005052;28;20409;-77
2023/03/20 03:50:27;;;;;;;4.70;2.67;;;8.80;54.70;;;;;;5002207;28;20050;-78
2023/03/20 03:53:01;;;;;;;7.88;2.92;;;8.80;55.70;;;;;;5020182;28;20038;-77
2023/03/20 03:55:35;;;;;;;5.88;2.70;;;8.80;55.60;;;;;;5006547;28;20030;-78
2023/03/20 03:58:36;;;;;;;4.07;2.63;;;8.70;59.60;;;;;;5006682;28;20030;-78
2023/03/20 04:01:06;;;;;;;5.03;2.83;;;8.70;62.50;;;;;;4997760;28;20058;-78
2023/03/20 04:03:37;;;;;;;5.47;3.40;;;8.70;65.50;;;;;;5005585;28;20030;-78
2023/03/20 04:06:05;;;;;;;7.50;3.90;;;8.70;69.20;;;;;;5001339;28;20470;-78
2023/03/20 04:08:33;;;;;;;5.43;3.17;;;8.70;73.40;;;;;;5005856;28;20030;-78
2023/03/20 04:10:59;;;;;;;4.85;3.25;;;8.70;73.20;;;;;;5001820;28;20049;-78
2023/03/20 04:13:25;;;;;;;5.07;3.10;;;8.70;73.90;;;;;;4992010;28;20045;-78
2023/03/20 04:15:52;;;;;;;5.53;3.17;;;8.70;72.90;;;;;;5006138;28;20048;-78
2023/03/20 04:18:18;;;;;;;4.63;2.88;;;8.70;73.60;;;;;;4996109;28;20049;-78
2023/03/20 04:20:47;;;;;;;5.38;3.30;;;8.70;74.10;;;;;;5000496;28;20046;-80
2023/03/20 04:23:14;;;;;;;5.93;4.20;;;8.70;74.50;;;;;;5006594;28;20042;-80
2023/03/20 04:25:40;;;;;;;7.35;4.35;;;8.70;76.70;;;;;;5007575;28;20038;-78
2023/03/20 04:28:06;;;;;;;5.28;3.00;;;8.70;77.10;;;;;;5003403;28;20053;-78
2023/03/20 04:30:57;;;;;;;5.63;3.30;;;8.70;75.70;;;;;;4997911;28;20059;-80
2023/03/20 04:33:42;;;;;;;5.30;3.38;;;8.70;73.50;;;;;;4998669;28;20048;-79
2023/03/20 04:36:27;;;;;;;6.40;3.38;;;8.70;72.30;;;;;;5005477;28;20400;-79
2023/03/20 04:38:54;;;;;;;6.80;4.22;;;8.70;73.00;;;;;;4999701;28;20042;-79
2023/03/20 04:41:21;;;;;;;7.72;3.80;;;8.70;72.60;;;;;;5005339;28;20053;-78
2023/03/20 04:43:52;;;;;;;5.38;3.42;;;8.80;72.30;;;;;;4998833;28;20046;-79
2023/03/20 04:46:18;;;;;;;5.40;3.53;;;8.80;72.70;;;;;;4998549;28;20036;-79
2023/03/20 04:48:44;;;;;;;5.07;3.50;;;8.80;72.20;;;;;;5007277;28;20041;-79
2023/03/20 04:51:12;;;;;;;8.98;3.90;;;8.70;71.60;;;;;;5000985;28;20202;-79
2023/03/20 04:53:50;;;;;;;6.65;3.63;;;8.80;71.10;;;;;;4998477;28;20043;-79
2023/03/20 04:56:17;;;;;;;6.35;4.18;;;8.80;68.60;;;;;;5002957;28;20049;-81
2023/03/20 04:58:44;;;;;;;6.53;4.30;;;8.80;65.00;;;;;;5006410;28;20045;-79
2023/03/20 05:01:11;;;;;;;7.35;4.30;;;8.90;61.60;;;;;;5009424;28;20858;-78
2023/03/20 05:03:38;;;;;;;6.55;4.50;;;8.90;59.40;;;;;;4998317;28;20038;-80
2023/03/20 05:06:05;;;;;;;7.50;4.65;;;8.90;57.10;;;;;;4987917;28;20049;-79
2023/03/20 05:08:32;;;;;;;7.35;4.57;;;8.90;55.70;;;;;;5003575;28;20042;-79
2023/03/20 05:11:00;;;;;;;8.30;4.72;;;9.00;55.30;;;;;;4979373;28;20054;-79
2023/03/20 05:13:52;;;;;;;7.40;5.05;;;8.90;53.70;;;;;;4986261;28;20360;-78
2023/03/20 05:16:38;;;;;;;8.48;4.57;;;8.90;52.50;;;;;;4997301;28;20286;-78
2023/03/20 05:19:27;;;;;;;7.50;4.72;;;8.90;50.40;;;;;;4988720;28;20046;-78
2023/03/20 05:22:12;;;;;;;11.45;6.22;;;8.90;50.30;;;;;;4996608;28;20387;-76
2023/03/20 05:25:02;;;;;;;7.90;5.57;;;8.90;48.10;;;;;;4988828;28;20042;-79
2023/03/20 05:27:46;;;;;;;8.00;4.65;;;8.90;46.40;;;;;;4990448;28;20038;-79
2023/03/20 05:30:33;;;;;;;7.93;4.90;;;9.00;45.80;;;;;;4994127;28;20394;-80
2023/03/20 05:33:35;;;;;;;10.43;5.38;;;9.00;45.70;;;;;;4991185;28;20053;-79
2023/03/20 05:36:09;;;;;;;9.65;5.03;;;9.00;44.90;;;;;;4991894;28;20511;-78
2023/03/20 05:39:01;;;;;;;9.25;4.82;;;9.00;45.00;;;;;;4988538;28;20045;-79
2023/03/20 05:41:47;;;;;;;7.90;4.97;;;9.00;45.90;;;;;;4992178;28;20483;-78
2023/03/20 05:44:32;;;;;;;7.65;5.10;;;9.00;44.70;;;;;;4994174;28;20049;-78
2023/03/20 05:47:16;;;;;;;8.43;4.45;;;9.00;44.50;;;;;;4994514;28;20034;-81
2023/03/20 05:49:55;;;;;;;7.15;4.38;;;9.00;42.80;;;;;;4990242;28;20375;-78
2023/03/20 05:52:36;;;;;;;12.05;4.88;;;9.00;39.70;;;;;;4990002;28;20042;-78
2023/03/20 05:55:21;;;;;;;9.75;5.75;;;9.10;36.60;;;;;;5006083;28;20038;-78
2023/03/20 05:57:55;;;;;;;8.95;4.70;;;9.10;34.60;;;;;;4988071;28;20042;-79
2023/03/20 06:00:49;;;;;;;10.25;6.20;;;9.20;31.00;;;;;;4989565;28;20046;-78
2023/03/20 06:03:45;;;;;;;7.22;5.35;;;9.20;27.30;;;;;;4974296;28;20042;-80
2023/03/20 06:06:16;;;;;;;7.57;4.90;;;9.20;25.70;;;;;;4991472;28;20383;-79
2023/03/20 06:08:47;;;;;;;10.27;5.60;;;9.20;25.70;;;;;;4976868;28;20059;-81
2023/03/20 06:11:13;;;;;;;7.88;4.90;;;9.20;24.50;;;;;;4997449;28;20045;-82
2023/03/20 06:13:40;;;;;;;10.55;6.20;;;9.20;24.70;;;;;;4990302;28;20042;-79
2023/03/20 06:16:07;;;;;;;10.45;6.30;;;9.20;26.40;;;;;;4992525;28;20030;-80
2023/03/20 06:18:35;;;;;;;7.65;5.70;;;9.20;25.90;;;;;;4990199;28;20050;-79
2023/03/20 06:21:01;;;;;;;12.48;6.53;;;9.20;27.40;;;;;;4991740;28;20034;-80
2023/03/20 06:23:28;;;;;;;10.00;6.13;;;9.20;25.90;;;;;;4989459;28;20034;-80
2023/03/20 06:25:55;;;;;;;10.63;6.55;;;9.20;26.00;;;;;;4989911;28;20491;-80
2023/03/20 06:28:21;;;;;;;13.23;6.88;;;9.20;25.30;;;;;;5013708;28;20068;-85
2023/03/20 06:30:57;;;;;;;13.13;7.38;;;9.30;23.50;;;;;;5005987;28;20051;-81
2023/03/20 06:33:24;;;;;;;11.02;6.95;;;9.20;22.60;;;;;;4988388;28;20080;-80
2023/03/20 06:35:56;;;;;;;13.45;6.75;;;9.30;20.70;;;;;;4988546;28;20038;-80
2023/03/20 06:38:24;;;;;;;12.88;6.90;;;9.30;19.00;;;;;;4994272;28;20042;-80
2023/03/20 06:40:50;;;;;;;12.95;6.85;;;9.30;18.20;;;;;;5013692;28;20045;-80
2023/03/20 06:43:18;;;;;;;15.13;7.63;;;9.40;17.80;;;;;;4993978;28;20038;-81
2023/03/20 06:45:49;;;;;;;13.48;7.30;;;9.40;16.70;;;;;;4995895;28;20049;-80
2023/03/20 06:48:27;;;;;;;12.57;8.02;;;9.40;12.90;;;;;;4977690;28;20468;-81
2023/03/20 06:50:54;;;;;;;13.60;7.50;;;9.40;12.40;;;;;;4995290;28;20052;-80
2023/03/20 06:53:23;;;;;;;15.27;7.00;;;9.40;9.70;;;;;;4995300;28;20073;-84
2023/03/20 06:56:04;;;;;;;14.55;8.68;;;9.40;8.60;;;;;;5007482;28;20046;-80
2023/03/20 06:58:30;;;;;;;13.05;8.88;;;9.40;7.40;;;;;;4997120;28;20035;-80
2023/03/20 07:00:56;;;;;;;13.88;8.23;;;9.40;8.30;;;;;;4995952;28;20053;-80
2023/03/20 07:03:22;;;;;;;13.30;8.40;;;9.40;9.30;;;;;;4994422;28;20472;-86
2023/03/20 07:05:50;;;;;;;14.52;9.38;;;9.40;12.10;;;;;;4993644;28;20041;-79
2023/03/20 07:08:17;;;;;;;14.23;8.23;;;9.40;16.00;;;;;;5014095;28;20043;-80
2023/03/20 07:10:43;;;;;;;14.50;9.32;;;9.40;18.30;;;;;;4993696;28;20045;-80
2023/03/20 07:13:11;;;;;;;18.63;8.57;;;9.40;21.10;;;;;;4995848;28;20038;-79
2023/03/20 07:15:39;;;;;;;20.05;10.25;;;9.40;23.00;;;;;;4991523;28;20038;-79
2023/03/20 07:18:08;;;;;;;14.48;8.85;;;9.40;27.60;;;;;;4995118;28;20038;-79
2023/03/20 07:20:34;;;;;;;15.00;8.70;;;9.30;28.10;;;;;;4974756;28;20503;-79
2023/03/20 07:23:00;;;;;;;12.32;8.20;;;9.30;27.00;;;;;;4975621;28;20042;-78
2023/03/20 07:25:30;;;;;;;14.27;9.68;;;9.40;26.60;;;;;;5008274;28;20042;-77
2023/03/20 07:27:57;;;;;;;17.02;10.20;;;9.40;24.50;;;;;;4994578;28;20035;-78
2023/03/20 07:30:25;;;;;;;16.88;9.65;;;9.50;25.80;;;;;;4991238;28;20051;-78
2023/03/20 07:32:53;;;;;;;15.38;8.80;;;9.60;20.50;;;;;;4991127;28;20510;-76
2023/03/20 07:35:20;;;;;;;12.70;8.73;;;9.60;16.60;;;;;;4990846;28;20045;-77
2023/03/20 07:37:46;;;;;;;15.00;9.07;;;9.70;16.50;;;;;;4993558;28;20035;-77
2023/03/20 07:40:12;;;;;;;18.90;9.13;;;9.60;14.70;;;;;;4992746;28;20058;-76
2023/03/20 07:43:05;;;;;;;20.70;11.27;;;9.70;14.40;;;;;;4991526;28;20049;-76
2023/03/20 07:46:07;;;;;;;15.55;10.13;;;9.70;6.20;;;;;;4993161;28;20034;-76
2023/03/20 07:48:36;;;;;;;15.05;8.85;;;9.70;6.90;;;;;;4989647;28;20046;-76
2023/03/20 07:51:02;;;;;;;14.02;7.97;;;9.80;5.00;;;;;;4989538;28;22499;-76
2023/03/20 07:53:29;;;;;;;13.07;8.32;;;9.70;4.00;;;;;;4991702;28;20057;-78
2023/03/20 07:55:55;;;;;;;14.38;8.30;;;9.80;5.40;;;;;;4994821;28;20027;-75
2023/03/20 07:58:21;;;;;;;15.20;9.25;;;9.80;1.70;;;;;;4989136;28;20042;-76
2023/03/20 08:00:47;;;;;;;21.73;8.55;;;9.70;1.10;;;;;;4974710;28;20513;-77
2023/03/20 08:03:13;;;;;;;12.88;7.30;;;9.70;1.00;;;;;;4994886;28;20041;-75
2023/03/20 08:05:40;;;;;;;13.38;8.00;;;9.70;1.00;;;;;;4992186;28;20050;-75
2023/03/20 08:08:06;;;;;;;12.82;8.10;;;9.70;1.00;;;;;;4992585;28;20042;-75
2023/03/20 08:10:32;;;;;;;11.25;7.18;;;9.70;1.00;;;;;;4991893;28;20030;-82
2023/03/20 08:13:01;;;;;;;14.40;8.82;;;9.70;1.00;;;;;;4992094;28;20039;-75
2023/03/20 08:15:27;;;;;;;12.38;7.82;;;9.80;1.00;;;;;;4991265;28;20399;-83
2023/03/20 08:17:53;;;;;;;14.75;9.35;;;9.80;1.50;;;;;;4991957;28;20490;-76
2023/03/20 08:20:20;;;;;;;21.98;9.13;;;9.80;2.70;;;;;;4993115;28;20471;-76
2023/03/20 08:22:48;;;;;;;19.17;10.27;;;9.80;2.10;;;;;;4993196;28;20026;-77
2023/03/20 08:25:14;;;;;;;16.63;10.15;;;9.80;2.60;;;;;;4991545;28;20026;-76
2023/03/20 08:27:40;;;;;;;15.70;9.32;;;9.90;4.00;;;;;;4992664;28;20050;-78
2023/03/20 08:30:08;;;;;;;16.77;9.07;;;10.00;2.30;;;;;;4991222;28;20065;-78
2023/03/20 08:32:34;;;;;;;20.20;10.15;;;10.00;1.00;;;;;;4990091;28;20038;-78
2023/03/20 08:35:01;;;;;;;19.98;11.00;;;10.00;1.00;;;;;;4992386;28;20030;-78
2023/03/20 08:37:27;;;;;;;22.48;10.95;;;10.10;1.00;;;;;;4992151;28;20050;-84
2023/03/20 08:39:53;;;;;;;16.63;10.77;;;10.10;1.00;;;;;;4992660;28;20034;-79
2023/03/20 08:42:19;;;;;;;22.30;11.48;;;10.10;1.00;;;;;;4991816;28;20035;-77
2023/03/20 08:44:47;;;;;;;25.27;13.00;;;10.20;1.00;;;;;;5003004;28;20375;-79
2023/03/20 08:47:13;;;;;;;19.55;10.85;;;10.20;1.00;;;;;;5000504;28;20034;-80
2023/03/20 08:49:39;;;;;;;17.33;10.02;;;10.30;1.00;;;;;;4991760;28;20387;-76
2023/03/20 08:52:05;;;;;;;23.65;12.45;;;10.20;1.00;;;;;;4990646;28;20046;-79
2023/03/20 08:54:32;;;;;;;17.90;10.32;;;10.30;1.00;;;;;;4991311;28;20034;-78
2023/03/20 08:56:58;;;;;;;18.17;10.68;;;10.40;1.00;;;;;;4994633;28;20046;-76
2023/03/20 08:59:25;;;;;;;16.23;10.63;;;10.40;1.00;;;;;;4993807;28;20026;-84
2023/03/20 09:01:51;;;;;;;17.65;10.68;;;10.40;1.00;;;;;;4972220;28;20039;-76
2023/03/20 09:04:17;;;;;;;18.33;10.82;;;10.40;1.00;;;;;;4992443;28;20349;-79
2023/03/20 09:06:43;;;;;;;19.65;11.40;;;10.40;1.00;;;;;;4990319;28;20047;-76
2023/03/20 09:09:10;;;;;;;19.30;11.27;;;10.40;1.00;;;;;;4994338;28;20057;-77
2023/03/20 09:11:36;;;;;;;21.15;12.23;;;10.50;1.00;;;;;;4991572;28;20057;-76
2023/03/20 09:14:02;;;;;;;18.90;10.65;;;10.60;1.00;;;;;;4991167;28;20057;-77
2023/03/20 09:16:29;;;;;;;19.00;10.68;;;10.60;1.00;;;;;;5001336;28;20033;-81
2023/03/20 09:18:55;;;;;;;19.13;10.93;;;10.60;1.00;;;;;;4991142;28;20046;-77
2023/03/20 09:21:21;;;;;;;22.23;12.45;;;10.60;1.00;;;;;;4993710;28;20459;-78
2023/03/20 09:23:47;;;;;;;21.52;12.43;;;10.60;1.00;;;;;;4991331;28;20034;-77
2023/03/20 09:26:13;;;;;;;19.70;12.18;;;10.60;1.00;;;;;;4994546;28;20026;-78
2023/03/20 09:28:39;;;;;;;21.42;13.15;;;10.70;1.00;;;;;;4990959;28;20058;-77
2023/03/20 09:31:06;;;;;;;24.30;13.82;;;10.80;1.00;;;;;;4993516;28;20482;-78
2023/03/20 09:33:32;;;;;;;28.83;16.65;;;10.70;1.00;;;;;;4988629;28;20041;-78
2023/03/20 09:35:58;;;;;;;28.85;15.63;;;10.80;1.00;;;;;;4992659;28;20037;-77
2023/03/20 09:38:24;;;;;;;24.90;14.65;;;10.90;1.00;;;;;;4976217;28;20030;-78
2023/03/20 09:41:02;;;;;;;17.13;11.20;;;10.90;1.00;;;;;;4992521;28;20042;-80
2023/03/20 09:43:48;;;;;;;17.38;10.80;;;11.00;1.00;;;;;;4989957;28;20026;-86
2023/03/20 09:46:52;;;;;;;17.92;9.15;;;11.10;1.00;;;;;;4990665;28;20427;-77
2023/03/20 09:49:36;;;;;;;21.20;13.00;;;11.20;1.00;;;;;;4991906;28;20379;-78
2023/03/20 09:52:23;;;;;;;20.85;11.70;;;11.40;1.00;;;;;;4992780;28;20353;-77
2023/03/20 09:54:57;;;;;;;21.50;11.30;;;11.40;1.00;;;;;;4975374;28;20042;-77
2023/03/20 09:57:45;;;;;;;22.42;14.73;;;11.30;1.00;;;;;;4993312;28;20038;-82
2023/03/20 10:00:24;;;;;;;17.95;10.95;;;11.20;1.00;;;;;;4988664;28;20037;-82
2023/03/20 10:02:55;;;;;;;21.08;11.63;;;11.00;1.00;;;;;;4988857;28;20026;-77
2023/03/20 10:05:28;;;;;;;14.95;9.05;;;11.00;1.00;;;;;;4989964;28;20479;-76
2023/03/20 10:07:57;;;;;;;13.75;8.63;;;11.10;1.00;;;;;;4992444;28;20033;-76
2023/03/20 10:10:50;;;;;;;16.60;10.60;;;11.20;1.00;;;;;;4997209;28;20046;-77
2023/03/20 10:13:58;;;;;;;16.35;9.57;;;11.60;1.00;;;;;;4980735;28;20042;-77
2023/03/20 10:17:01;;;;;;;13.40;8.38;;;11.90;1.00;;;;;;4996790;28;20045;-77
2023/03/20 10:19:31;;;;;;;15.48;10.02;;;12.20;1.00;;;;;;4994066;28;20026;-82
2023/03/20 10:21:57;;;;;;;16.35;9.57;;;12.40;1.00;;;;;;4988964;28;20034;-77
2023/03/20 10:24:34;;;;;;;16.50;8.70;;;12.40;1.00;;;;;;5001130;28;20051;-75
2023/03/20 10:27:37;;;;;;;11.15;7.60;;;12.20;1.00;;;;;;5004807;28;20034;-76
2023/03/20 10:30:28;;;;;;;13.38;8.73;;;12.00;1.00;;;;;;4977698;28;20058;-77
2023/03/20 10:33:04;;;;;;;13.50;9.25;;;11.90;1.00;;;;;;4996477;28;20046;-77
2023/03/20 10:35:42;;;;;;;12.15;8.25;;;12.10;1.00;;;;;;5002200;28;20025;-77
2023/03/20 10:38:29;;;;;;;15.27;9.27;;;12.20;1.00;;;;;;5001514;28;20690;-77
2023/03/20 10:40:56;;;;;;;19.42;9.80;;;12.10;1.00;;;;;;4997457;28;20037;-77
2023/03/20 10:43:29;;;;;;;15.35;9.27;;;12.10;1.00;;;;;;5004396;28;20045;-77
2023/03/20 10:46:14;;;;;;;18.52;9.52;;;12.10;1.00;;;;;;4992506;28;20044;-77
2023/03/20 10:48:48;;;;;;;15.52;9.57;;;11.90;1.00;;;;;;4995861;28;20031;-77
2023/03/20 10:51:18;;;;;;;13.07;8.15;;;11.80;1.00;;;;;;4992579;28;20034;-77
2023/03/20 10:53:47;;;;;;;16.83;9.32;;;11.70;1.00;;;;;;4995690;28;20041;-77
2023/03/20 10:56:29;;;;;;;13.30;8.23;;;11.80;1.00;;;;;;4994309;28;20041;-76
2023/03/20 10:59:04;;;;;;;14.10;8.45;;;12.00;1.00;;;;;;4988497;28;20029;-77
2023/03/20 11:01:31;;;;;;;12.38;7.18;;;12.10;1.00;;;;;;5007073;28;20378;-84
2023/03/20 11:03:58;;;;;;;15.98;7.72;;;12.30;1.00;;;;;;4997389;28;20049;-78
2023/03/20 11:06:31;;;;;;;15.73;8.98;;;12.50;1.00;;;;;;5005409;28;20057;-78
2023/03/20 11:09:17;;;;;;;13.32;7.75;;;12.50;1.00;;;;;;4984577;28;20479;-77
2023/03/20 11:11:48;;;;;;;13.10;7.70;;;12.60;1.00;;;;;;4994922;28;20038;-79
2023/03/20 11:14:24;;;;;;;10.23;6.63;;;12.80;1.00;;;;;;4994531;28;20470;-76
2023/03/20 11:16:55;;;;;;;12.10;6.40;;;13.60;1.00;;;;;;4998132;28;20053;-76
2023/03/20 11:19:22;;;;;;;10.20;7.18;;;14.20;99.90;;;;;;5004557;28;20041;-77
2023/03/20 11:21:59;;;;;;;10.65;6.32;;;14.20;99.90;;;;;;4978053;28;20466;-76
2023/03/20 11:24:44;;;;;;;11.63;6.72;;;14.40;99.90;;;;;;5001427;28;20041;-75
2023/03/20 11:27:15;;;;;;;11.65;7.20;;;14.50;99.90;;;;;;5007561;28;20026;-77
2023/03/20 11:29:41;;;;;;;10.88;6.20;;;14.40;99.90;;;;;;5008492;28;20034;-76
2023/03/20 11:32:29;;;;;;;10.35;6.40;;;14.70;99.90;;;;;;5000520;28;20043;-76
2023/03/20 11:34:56;;;;;;;9.73;5.60;;;14.50;99.90;;;;;;4994187;28;20042;-76
2023/03/20 11:37:24;;;;;;;9.43;5.55;;;14.70;99.90;;;;;;5006625;28;20038;-77
2023/03/20 11:40:14;;;;;;;8.77;5.45;;;15.20;99.90;;;;;;5006855;28;20045;-77
2023/03/20 11:42:59;;;;;;;10.60;5.65;;;15.40;99.90;;;;;;5005938;28;20038;-77
2023/03/20 11:45:27;;;;;;;7.53;4.20;;;15.20;99.90;;;;;;4998431;28;20042;-76
2023/03/20 11:47:56;;;;;;;7.60;4.50;;;14.90;99.90;;;;;;4994470;28;20532;-78
2023/03/20 11:50:25;;;;;;;7.95;4.25;;;15.10;99.90;;;;;;4997142;28;20042;-76
2023/03/20 11:52:52;;;;;;;6.60;3.67;;;15.10;99.90;;;;;;5002158;28;20042;-77
2023/03/20 11:55:29;;;;;;;7.40;4.15;;;15.10;99.90;;;;;;5003305;28;20377;-77
2023/03/20 11:58:00;;;;;;;8.10;4.20;;;15.00;99.90;;;;;;4978609;28;20102;-77
2023/03/20 12:00:34;;;;;;;7.40;4.50;;;14.60;99.90;;;;;;4987358;28;20049;-77
2023/03/20 12:03:02;;;;;;;5.50;3.35;;;14.20;99.90;;;;;;5007584;28;20037;-76
2023/03/20 12:05:38;;;;;;;6.03;4.10;;;14.20;99.90;;;;;;5004403;28;20041;-78
2023/03/20 12:08:19;;;;;;;6.50;3.35;;;14.10;99.90;;;;;;4999640;28;20034;-77
2023/03/20 12:10:53;;;;;;;5.65;4.25;;;14.40;99.90;;;;;;4998983;28;20037;-77
2023/03/20 12:13:28;;;;;;;7.13;3.45;;;14.60;99.90;;;;;;4995072;28;20042;-77
2023/03/20 12:16:05;;;;;;;5.45;2.97;;;14.50;99.90;;;;;;4995644;28;20022;-76
2023/03/20 12:18:45;;;;;;;5.63;3.10;;;14.40;99.90;;;;;;4992529;28;20026;-77
2023/03/20 12:21:22;;;;;;;5.63;2.65;;;14.40;99.90;;;;;;4998217;28;20398;-77
2023/03/20 12:23:55;;;;;;;5.57;3.72;;;14.40;99.90;;;;;;4997268;28;20060;-76
2023/03/20 12:26:55;;;;;;;6.25;3.05;;;14.40;99.90;;;;;;4993397;28;20026;-77
2023/03/20 12:29:35;;;;;;;5.53;2.97;;;14.60;99.90;;;;;;4973992;28;20054;-76
2023/03/20 12:32:02;;;;;;;8.95;3.55;;;14.80;99.90;;;;;;4992320;28;20353;-77
2023/03/20 12:34:28;;;;;;;5.80;3.08;;;14.80;99.90;;;;;;4992044;28;20042;-77
2023/03/20 12:36:58;;;;;;;5.15;4.18;;;14.40;99.90;;;;;;4989941;28;20037;-77
2023/03/20 12:39:31;;;;;;;5.35;3.22;;;14.30;99.90;;;;;;4992120;28;20038;-76
2023/03/20 12:42:34;;;;;;;8.90;5.25;;;14.50;99.90;;;;;;4991681;28;20026;-77
2023/03/20 12:45:15;;;;;;;7.40;5.28;;;14.70;99.90;;;;;;4991924;28;20034;-79
2023/03/20 12:48:00;;;;;;;;;;;14.50;99.90;;;;;;4991756;28;20030;-77
2023/03/20 12:50:38;;;;;;;12.40;7.13;;;14.50;99.90;;;;;;4990817;28;19914;-77
2023/03/20 12:53:23;;;;;;;9.38;5.35;;;14.40;99.90;;;;;;4994547;28;20455;-77
2023/03/20 12:56:08;;;;;;;8.00;4.22;;;14.50;99.90;;;;;;4994051;28;20380;-79
2023/03/20 12:58:49;;;;;;;6.85;3.45;;;14.30;99.90;;;;;;4993413;28;20455;-79
2023/03/20 13:01:35;;;;;;;;;;;14.60;99.90;;;;;;4990921;28;20530;-78
2023/03/20 13:04:19;;;;;;;5.45;2.63;;;14.60;99.90;;;;;;4993860;28;20351;-78
2023/03/20 13:07:01;;;;;;;5.97;2.65;;;14.70;99.90;;;;;;4995581;28;20026;-78
2023/03/20 13:09:30;;;;;;;4.70;3.33;;;15.00;99.90;;;;;;4987847;28;20045;-79
2023/03/20 13:12:02;;;;;;;7.13;3.38;;;15.40;99.90;;;;;;4992835;28;20548;-78
2023/03/20 13:14:54;;;;;;;6.72;2.70;;;15.50;99.90;;;;;;4993678;28;20049;-78
2023/03/20 13:17:37;;;;;;;5.72;2.33;;;15.30;99.90;;;;;;4972869;28;20042;-80
2023/03/20 13:20:20;;;;;;;4.60;2.70;;;15.30;99.90;;;;;;4995466;28;20475;-78
2023/03/20 13:23:12;;;;;;;4.07;2.10;;;15.20;99.90;;;;;;4990867;28;20041;-77
2023/03/20 13:26:03;;;;;;;5.60;2.00;;;15.20;99.90;;;;;;4946901;28;20483;-81